sensor_id;sensor_type;location;lat;lon;timestamp;P1;durP1;ratioP1;P2;durP2;ratioP2
16804;SDS011;8520;50.102;20.010;2023-07-31T00:00:56;42.95;;;41.08;;
16804;SDS011;8520;50.102;20.010;2023-07-31T00:03:24;44.15;;;41.85;;
16804;SDS011;8520;50.102;20.010;2023-07-31T00:05:52;43.40;;;41.50;;
16804;SDS011;8520;50.102;20.010;2023-07-31T00:08:20;43.78;;;41.88;;
16804;SDS011;8520;50.102;20.010;2023-07-31T00:10:52;43.60;;;41.70;;
16804;SDS011;8520;50.102;20.010;2023-07-31T00:13:20;44.63;;;42.63;;
16804;SDS011;8520;50.102;20.010;2023-07-31T00:15:48;44.03;;;42.00;;
16804;SDS011;8520;50.102;20.010;2023-07-31T00:18:16;44.15;;;42.15;;
16804;SDS011;8520;50.102;20.010;2023-07-31T00:20:43;45.25;;;43.15;;
16804;SDS011;8520;50.102;20.010;2023-07-31T00:23:11;45.35;;;43.25;;
16804;SDS011;8520;50.102;20.010;2023-07-31T00:25:39;45.75;;;43.65;;
16804;SDS011;8520;50.102;20.010;2023-07-31T00:28:08;45.92;;;43.83;;
16804;SDS011;8520;50.102;20.010;2023-07-31T00:30:37;45.60;;;43.60;;
16804;SDS011;8520;50.102;20.010;2023-07-31T00:33:05;46.28;;;44.13;;
16804;SDS011;8520;50.102;20.010;2023-07-31T00:35:35;47.15;;;44.88;;
16804;SDS011;8520;50.102;20.010;2023-07-31T00:38:03;48.10;;;45.70;;
16804;SDS011;8520;50.102;20.010;2023-07-31T00:40:34;48.92;;;46.65;;
16804;SDS011;8520;50.102;20.010;2023-07-31T00:43:02;49.22;;;46.85;;
16804;SDS011;8520;50.102;20.010;2023-07-31T00:45:32;50.70;;;48.30;;
16804;SDS011;8520;50.102;20.010;2023-07-31T00:48:00;49.90;;;47.67;;
16804;SDS011;8520;50.102;20.010;2023-07-31T00:50:29;50.42;;;48.03;;
16804;SDS011;8520;50.102;20.010;2023-07-31T00:52:57;50.85;;;48.28;;
16804;SDS011;8520;50.102;20.010;2023-07-31T00:55:25;51.33;;;49.00;;
16804;SDS011;8520;50.102;20.010;2023-07-31T00:57:53;52.67;;;50.17;;
16804;SDS011;8520;50.102;20.010;2023-07-31T01:00:22;53.33;;;50.83;;
16804;SDS011;8520;50.102;20.010;2023-07-31T01:02:51;53.83;;;51.28;;
16804;SDS011;8520;50.102;20.010;2023-07-31T01:05:21;55.42;;;52.72;;
16804;SDS011;8520;50.102;20.010;2023-07-31T01:08:07;56.22;;;53.45;;
16804;SDS011;8520;50.102;20.010;2023-07-31T01:10:42;56.97;;;54.17;;
16804;SDS011;8520;50.102;20.010;2023-07-31T01:13:11;57.80;;;55.10;;
16804;SDS011;8520;50.102;20.010;2023-07-31T01:15:39;59.17;;;56.20;;
16804;SDS011;8520;50.102;20.010;2023-07-31T01:18:08;60.17;;;57.28;;
16804;SDS011;8520;50.102;20.010;2023-07-31T01:20:36;61.47;;;58.47;;
16804;SDS011;8520;50.102;20.010;2023-07-31T01:23:08;62.45;;;59.45;;
16804;SDS011;8520;50.102;20.010;2023-07-31T01:25:53;64.63;;;61.42;;
16804;SDS011;8520;50.102;20.010;2023-07-31T01:28:23;66.40;;;63.20;;
16804;SDS011;8520;50.102;20.010;2023-07-31T01:30:53;67.22;;;63.92;;
16804;SDS011;8520;50.102;20.010;2023-07-31T01:33:23;67.03;;;63.65;;
16804;SDS011;8520;50.102;20.010;2023-07-31T01:35:50;68.80;;;65.40;;
16804;SDS011;8520;50.102;20.010;2023-07-31T01:38:20;69.68;;;66.28;;
16804;SDS011;8520;50.102;20.010;2023-07-31T01:40:50;70.03;;;66.55;;
16804;SDS011;8520;50.102;20.010;2023-07-31T01:43:20;71.93;;;68.20;;
16804;SDS011;8520;50.102;20.010;2023-07-31T01:45:48;73.30;;;69.57;;
16804;SDS011;8520;50.102;20.010;2023-07-31T01:48:16;74.63;;;70.70;;
16804;SDS011;8520;50.102;20.010;2023-07-31T01:50:44;75.13;;;71.32;;
16804;SDS011;8520;50.102;20.010;2023-07-31T01:53:12;75.45;;;71.65;;
16804;SDS011;8520;50.102;20.010;2023-07-31T01:55:41;75.82;;;71.97;;
16804;SDS011;8520;50.102;20.010;2023-07-31T01:58:09;76.63;;;72.75;;
16804;SDS011;8520;50.102;20.010;2023-07-31T02:00:39;77.10;;;73.20;;
16804;SDS011;8520;50.102;20.010;2023-07-31T02:03:06;78.38;;;74.15;;
16804;SDS011;8520;50.102;20.010;2023-07-31T02:05:34;77.65;;;73.70;;
16804;SDS011;8520;50.102;20.010;2023-07-31T02:08:02;78.30;;;74.28;;
16804;SDS011;8520;50.102;20.010;2023-07-31T02:10:32;81.22;;;76.63;;
16804;SDS011;8520;50.102;20.010;2023-07-31T02:13:00;80.80;;;76.60;;
16804;SDS011;8520;50.102;20.010;2023-07-31T02:15:30;83.43;;;79.13;;
16804;SDS011;8520;50.102;20.010;2023-07-31T02:17:59;83.93;;;79.63;;
16804;SDS011;8520;50.102;20.010;2023-07-31T02:20:27;85.47;;;81.07;;
16804;SDS011;8520;50.102;20.010;2023-07-31T02:22:55;86.38;;;81.88;;
16804;SDS011;8520;50.102;20.010;2023-07-31T02:25:24;87.30;;;82.57;;
16804;SDS011;8520;50.102;20.010;2023-07-31T02:27:52;88.75;;;84.13;;
16804;SDS011;8520;50.102;20.010;2023-07-31T02:30:20;88.35;;;83.57;;
16804;SDS011;8520;50.102;20.010;2023-07-31T02:32:48;89.05;;;84.35;;
16804;SDS011;8520;50.102;20.010;2023-07-31T02:35:18;89.88;;;85.07;;
16804;SDS011;8520;50.102;20.010;2023-07-31T02:37:45;89.70;;;84.85;;
16804;SDS011;8520;50.102;20.010;2023-07-31T02:40:13;90.88;;;85.80;;
16804;SDS011;8520;50.102;20.010;2023-07-31T02:42:41;90.82;;;85.93;;
16804;SDS011;8520;50.102;20.010;2023-07-31T02:45:11;91.20;;;86.13;;
16804;SDS011;8520;50.102;20.010;2023-07-31T02:47:38;91.70;;;86.63;;
16804;SDS011;8520;50.102;20.010;2023-07-31T02:50:06;91.97;;;86.88;;
16804;SDS011;8520;50.102;20.010;2023-07-31T02:52:36;91.80;;;86.90;;
16804;SDS011;8520;50.102;20.010;2023-07-31T02:55:04;92.03;;;87.15;;
16804;SDS011;8520;50.102;20.010;2023-07-31T02:57:32;91.90;;;86.90;;
16804;SDS011;8520;50.102;20.010;2023-07-31T03:00:00;91.97;;;86.97;;
16804;SDS011;8520;50.102;20.010;2023-07-31T03:02:32;91.90;;;86.90;;
16804;SDS011;8520;50.102;20.010;2023-07-31T03:05:01;91.32;;;86.43;;
16804;SDS011;8520;50.102;20.010;2023-07-31T03:07:29;92.53;;;87.40;;
16804;SDS011;8520;50.102;20.010;2023-07-31T03:09:58;91.70;;;86.65;;
16804;SDS011;8520;50.102;20.010;2023-07-31T03:12:26;91.53;;;86.50;;
16804;SDS011;8520;50.102;20.010;2023-07-31T03:14:54;90.70;;;85.90;;
16804;SDS011;8520;50.102;20.010;2023-07-31T03:17:22;90.53;;;85.80;;
16804;SDS011;8520;50.102;20.010;2023-07-31T03:19:50;90.90;;;85.85;;
16804;SDS011;8520;50.102;20.010;2023-07-31T03:22:18;90.07;;;85.15;;
16804;SDS011;8520;50.102;20.010;2023-07-31T03:24:46;89.35;;;84.55;;
16804;SDS011;8520;50.102;20.010;2023-07-31T03:27:15;89.20;;;84.38;;
16804;SDS011;8520;50.102;20.010;2023-07-31T03:29:43;88.95;;;84.25;;
16804;SDS011;8520;50.102;20.010;2023-07-31T03:32:11;87.25;;;82.65;;
16804;SDS011;8520;50.102;20.010;2023-07-31T03:34:39;87.03;;;82.38;;
16804;SDS011;8520;50.102;20.010;2023-07-31T03:37:06;87.25;;;82.57;;
16804;SDS011;8520;50.102;20.010;2023-07-31T03:39:35;84.53;;;80.13;;
16804;SDS011;8520;50.102;20.010;2023-07-31T03:42:03;84.68;;;80.00;;
16804;SDS011;8520;50.102;20.010;2023-07-31T03:44:33;83.60;;;79.25;;
16804;SDS011;8520;50.102;20.010;2023-07-31T03:47:01;83.13;;;78.80;;
16804;SDS011;8520;50.102;20.010;2023-07-31T03:49:29;81.13;;;76.78;;
16804;SDS011;8520;50.102;20.010;2023-07-31T03:51:57;79.97;;;75.88;;
16804;SDS011;8520;50.102;20.010;2023-07-31T03:54:25;80.88;;;76.55;;
16804;SDS011;8520;50.102;20.010;2023-07-31T03:56:52;80.45;;;76.35;;
16804;SDS011;8520;50.102;20.010;2023-07-31T03:59:21;79.65;;;75.65;;
16804;SDS011;8520;50.102;20.010;2023-07-31T04:01:50;78.80;;;74.80;;
16804;SDS011;8520;50.102;20.010;2023-07-31T04:04:18;78.75;;;74.75;;
16804;SDS011;8520;50.102;20.010;2023-07-31T04:06:45;77.22;;;73.22;;
16804;SDS011;8520;50.102;20.010;2023-07-31T04:09:13;76.18;;;72.22;;
16804;SDS011;8520;50.102;20.010;2023-07-31T04:11:41;75.72;;;71.70;;
16804;SDS011;8520;50.102;20.010;2023-07-31T04:14:09;73.35;;;69.75;;
16804;SDS011;8520;50.102;20.010;2023-07-31T04:16:37;72.57;;;69.07;;
16804;SDS011;8520;50.102;20.010;2023-07-31T04:19:07;71.30;;;67.80;;
16804;SDS011;8520;50.102;20.010;2023-07-31T04:21:35;71.32;;;67.78;;
16804;SDS011;8520;50.102;20.010;2023-07-31T04:24:03;69.43;;;66.05;;
16804;SDS011;8520;50.102;20.010;2023-07-31T04:26:31;69.82;;;66.30;;
16804;SDS011;8520;50.102;20.010;2023-07-31T04:28:59;69.25;;;65.95;;
16804;SDS011;8520;50.102;20.010;2023-07-31T04:31:27;66.65;;;63.35;;
16804;SDS011;8520;50.102;20.010;2023-07-31T04:33:55;64.00;;;60.90;;
16804;SDS011;8520;50.102;20.010;2023-07-31T04:36:24;61.55;;;58.45;;
16804;SDS011;8520;50.102;20.010;2023-07-31T04:38:52;61.70;;;58.63;;
16804;SDS011;8520;50.102;20.010;2023-07-31T04:41:20;61.63;;;58.63;;
16804;SDS011;8520;50.102;20.010;2023-07-31T04:43:48;60.30;;;57.50;;
16804;SDS011;8520;50.102;20.010;2023-07-31T04:46:16;59.67;;;56.88;;
16804;SDS011;8520;50.102;20.010;2023-07-31T04:48:44;59.95;;;57.03;;
16804;SDS011;8520;50.102;20.010;2023-07-31T04:51:12;60.10;;;57.30;;
16804;SDS011;8520;50.102;20.010;2023-07-31T04:53:42;61.33;;;58.38;;
16804;SDS011;8520;50.102;20.010;2023-07-31T04:56:10;61.88;;;58.95;;
16804;SDS011;8520;50.102;20.010;2023-07-31T04:58:38;61.78;;;58.78;;
16804;SDS011;8520;50.102;20.010;2023-07-31T05:01:06;60.35;;;57.45;;
16804;SDS011;8520;50.102;20.010;2023-07-31T05:03:34;60.50;;;57.60;;
16804;SDS011;8520;50.102;20.010;2023-07-31T05:06:02;59.97;;;57.17;;
16804;SDS011;8520;50.102;20.010;2023-07-31T05:08:30;60.13;;;57.22;;
16804;SDS011;8520;50.102;20.010;2023-07-31T05:10:59;58.65;;;55.75;;
16804;SDS011;8520;50.102;20.010;2023-07-31T05:13:27;56.60;;;53.88;;
16804;SDS011;8520;50.102;20.010;2023-07-31T05:15:55;55.65;;;53.05;;
16804;SDS011;8520;50.102;20.010;2023-07-31T05:18:26;53.88;;;51.38;;
16804;SDS011;8520;50.102;20.010;2023-07-31T05:20:54;53.25;;;50.85;;
16804;SDS011;8520;50.102;20.010;2023-07-31T05:23:21;52.00;;;49.45;;
16804;SDS011;8520;50.102;20.010;2023-07-31T05:25:49;52.22;;;49.83;;
16804;SDS011;8520;50.102;20.010;2023-07-31T05:28:20;52.22;;;49.53;;
16804;SDS011;8520;50.102;20.010;2023-07-31T05:30:48;53.50;;;51.00;;
16804;SDS011;8520;50.102;20.010;2023-07-31T05:33:16;52.42;;;49.95;;
16804;SDS011;8520;50.102;20.010;2023-07-31T05:35:44;52.50;;;50.10;;
16804;SDS011;8520;50.102;20.010;2023-07-31T05:38:12;53.20;;;50.63;;
16804;SDS011;8520;50.102;20.010;2023-07-31T05:40:42;50.83;;;48.35;;
16804;SDS011;8520;50.102;20.010;2023-07-31T05:43:10;46.88;;;44.72;;
16804;SDS011;8520;50.102;20.010;2023-07-31T05:45:39;45.97;;;43.85;;
16804;SDS011;8520;50.102;20.010;2023-07-31T05:48:07;45.70;;;43.53;;
16804;SDS011;8520;50.102;20.010;2023-07-31T05:50:35;44.67;;;42.55;;
16804;SDS011;8520;50.102;20.010;2023-07-31T05:53:05;43.53;;;41.60;;
16804;SDS011;8520;50.102;20.010;2023-07-31T05:55:34;41.38;;;39.33;;
16804;SDS011;8520;50.102;20.010;2023-07-31T05:58:02;40.92;;;38.92;;
16804;SDS011;8520;50.102;20.010;2023-07-31T06:00:30;38.53;;;36.83;;
16804;SDS011;8520;50.102;20.010;2023-07-31T06:02:59;37.15;;;35.50;;
16804;SDS011;8520;50.102;20.010;2023-07-31T06:05:27;37.35;;;35.75;;
16804;SDS011;8520;50.102;20.010;2023-07-31T06:07:56;37.92;;;36.28;;
16804;SDS011;8520;50.102;20.010;2023-07-31T06:10:24;39.50;;;37.53;;
16804;SDS011;8520;50.102;20.010;2023-07-31T06:12:52;39.05;;;37.15;;
16804;SDS011;8520;50.102;20.010;2023-07-31T06:15:20;38.03;;;36.22;;
16804;SDS011;8520;50.102;20.010;2023-07-31T06:17:48;37.47;;;35.67;;
16804;SDS011;8520;50.102;20.010;2023-07-31T06:20:17;37.50;;;35.80;;
16804;SDS011;8520;50.102;20.010;2023-07-31T06:22:45;39.58;;;37.58;;
16804;SDS011;8520;50.102;20.010;2023-07-31T06:25:13;37.00;;;35.38;;
16804;SDS011;8520;50.102;20.010;2023-07-31T06:27:41;35.97;;;34.20;;
16804;SDS011;8520;50.102;20.010;2023-07-31T06:30:10;34.78;;;33.17;;
16804;SDS011;8520;50.102;20.010;2023-07-31T06:32:38;36.22;;;34.45;;
16804;SDS011;8520;50.102;20.010;2023-07-31T06:35:07;36.05;;;34.15;;
16804;SDS011;8520;50.102;20.010;2023-07-31T06:37:36;34.20;;;32.60;;
16804;SDS011;8520;50.102;20.010;2023-07-31T06:40:07;35.78;;;33.75;;
16804;SDS011;8520;50.102;20.010;2023-07-31T06:42:35;33.92;;;32.38;;
16804;SDS011;8520;50.102;20.010;2023-07-31T06:45:03;35.50;;;33.70;;
16804;SDS011;8520;50.102;20.010;2023-07-31T06:47:31;37.00;;;34.83;;
16804;SDS011;8520;50.102;20.010;2023-07-31T06:49:59;34.72;;;33.13;;
16804;SDS011;8520;50.102;20.010;2023-07-31T06:52:27;32.90;;;31.40;;
16804;SDS011;8520;50.102;20.010;2023-07-31T06:55:04;31.88;;;30.35;;
16804;SDS011;8520;50.102;20.010;2023-07-31T06:57:32;31.40;;;29.70;;
16804;SDS011;8520;50.102;20.010;2023-07-31T07:00:00;27.52;;;26.23;;
16804;SDS011;8520;50.102;20.010;2023-07-31T07:02:28;26.13;;;25.00;;
16804;SDS011;8520;50.102;20.010;2023-07-31T07:04:55;24.45;;;23.35;;
16804;SDS011;8520;50.102;20.010;2023-07-31T07:07:23;22.58;;;21.40;;
16804;SDS011;8520;50.102;20.010;2023-07-31T07:09:51;21.35;;;20.33;;
16804;SDS011;8520;50.102;20.010;2023-07-31T07:12:21;21.23;;;20.23;;
16804;SDS011;8520;50.102;20.010;2023-07-31T07:14:49;20.92;;;19.92;;
16804;SDS011;8520;50.102;20.010;2023-07-31T07:17:17;19.65;;;18.75;;
16804;SDS011;8520;50.102;20.010;2023-07-31T07:19:45;18.40;;;17.60;;
16804;SDS011;8520;50.102;20.010;2023-07-31T07:22:13;17.80;;;17.05;;
16804;SDS011;8520;50.102;20.010;2023-07-31T07:24:41;16.33;;;15.55;;
16804;SDS011;8520;50.102;20.010;2023-07-31T07:27:09;15.38;;;14.38;;
16804;SDS011;8520;50.102;20.010;2023-07-31T07:29:38;14.23;;;13.52;;
16804;SDS011;8520;50.102;20.010;2023-07-31T07:32:07;14.60;;;13.73;;
16804;SDS011;8520;50.102;20.010;2023-07-31T07:34:35;14.43;;;13.70;;
16804;SDS011;8520;50.102;20.010;2023-07-31T07:37:03;13.82;;;13.23;;
16804;SDS011;8520;50.102;20.010;2023-07-31T07:39:31;13.23;;;12.52;;
16804;SDS011;8520;50.102;20.010;2023-07-31T07:41:59;14.07;;;13.35;;
16804;SDS011;8520;50.102;20.010;2023-07-31T07:44:26;15.43;;;14.73;;
16804;SDS011;8520;50.102;20.010;2023-07-31T07:46:56;15.63;;;14.82;;
16804;SDS011;8520;50.102;20.010;2023-07-31T07:49:24;15.40;;;14.63;;
16804;SDS011;8520;50.102;20.010;2023-07-31T07:51:52;13.82;;;13.05;;
16804;SDS011;8520;50.102;20.010;2023-07-31T07:54:19;13.25;;;12.65;;
16804;SDS011;8520;50.102;20.010;2023-07-31T07:56:47;12.15;;;11.55;;
16804;SDS011;8520;50.102;20.010;2023-07-31T07:59:16;12.30;;;11.60;;
16804;SDS011;8520;50.102;20.010;2023-07-31T08:01:44;11.63;;;10.80;;
16804;SDS011;8520;50.102;20.010;2023-07-31T08:04:13;11.20;;;10.60;;
16804;SDS011;8520;50.102;20.010;2023-07-31T08:06:41;11.68;;;11.05;;
16804;SDS011;8520;50.102;20.010;2023-07-31T08:09:09;13.23;;;12.18;;
16804;SDS011;8520;50.102;20.010;2023-07-31T08:11:37;11.65;;;11.15;;
16804;SDS011;8520;50.102;20.010;2023-07-31T08:14:05;11.25;;;10.60;;
16804;SDS011;8520;50.102;20.010;2023-07-31T08:16:33;9.93;;;9.23;;
16804;SDS011;8520;50.102;20.010;2023-07-31T08:19:01;8.50;;;8.10;;
16804;SDS011;8520;50.102;20.010;2023-07-31T08:21:30;9.05;;;8.55;;
16804;SDS011;8520;50.102;20.010;2023-07-31T08:23:59;9.00;;;8.40;;
16804;SDS011;8520;50.102;20.010;2023-07-31T08:26:28;9.27;;;8.60;;
16804;SDS011;8520;50.102;20.010;2023-07-31T08:28:56;7.95;;;7.55;;
16804;SDS011;8520;50.102;20.010;2023-07-31T08:31:24;9.32;;;8.63;;
16804;SDS011;8520;50.102;20.010;2023-07-31T08:33:53;8.75;;;8.15;;
16804;SDS011;8520;50.102;20.010;2023-07-31T08:36:21;8.77;;;8.27;;
16804;SDS011;8520;50.102;20.010;2023-07-31T08:38:50;9.02;;;8.43;;
16804;SDS011;8520;50.102;20.010;2023-07-31T08:41:18;9.13;;;8.52;;
16804;SDS011;8520;50.102;20.010;2023-07-31T08:43:46;9.25;;;8.65;;
16804;SDS011;8520;50.102;20.010;2023-07-31T08:46:14;10.50;;;9.70;;
16804;SDS011;8520;50.102;20.010;2023-07-31T08:48:42;9.75;;;9.15;;
16804;SDS011;8520;50.102;20.010;2023-07-31T08:51:11;8.40;;;7.93;;
16804;SDS011;8520;50.102;20.010;2023-07-31T08:53:39;8.43;;;7.82;;
16804;SDS011;8520;50.102;20.010;2023-07-31T08:56:08;8.80;;;8.27;;
16804;SDS011;8520;50.102;20.010;2023-07-31T08:58:36;9.45;;;8.85;;
16804;SDS011;8520;50.102;20.010;2023-07-31T09:01:05;8.85;;;8.25;;
16804;SDS011;8520;50.102;20.010;2023-07-31T09:03:34;8.90;;;8.23;;
16804;SDS011;8520;50.102;20.010;2023-07-31T09:06:04;8.30;;;7.70;;
16804;SDS011;8520;50.102;20.010;2023-07-31T09:08:33;8.95;;;8.15;;
16804;SDS011;8520;50.102;20.010;2023-07-31T09:11:01;7.72;;;7.32;;
16804;SDS011;8520;50.102;20.010;2023-07-31T09:13:31;7.53;;;7.03;;
16804;SDS011;8520;50.102;20.010;2023-07-31T09:15:59;8.52;;;7.90;;
16804;SDS011;8520;50.102;20.010;2023-07-31T09:18:27;7.82;;;7.32;;
16804;SDS011;8520;50.102;20.010;2023-07-31T09:21:01;8.00;;;7.40;;
16804;SDS011;8520;50.102;20.010;2023-07-31T09:23:42;8.02;;;6.85;;
16804;SDS011;8520;50.102;20.010;2023-07-31T09:26:10;7.82;;;7.15;;
16804;SDS011;8520;50.102;20.010;2023-07-31T09:28:40;7.80;;;7.20;;
16804;SDS011;8520;50.102;20.010;2023-07-31T09:31:08;7.68;;;7.28;;
16804;SDS011;8520;50.102;20.010;2023-07-31T09:33:36;7.68;;;7.05;;
16804;SDS011;8520;50.102;20.010;2023-07-31T09:36:21;7.70;;;7.10;;
16804;SDS011;8520;50.102;20.010;2023-07-31T09:38:49;8.40;;;7.90;;
16804;SDS011;8520;50.102;20.010;2023-07-31T09:41:17;8.05;;;7.55;;
16804;SDS011;8520;50.102;20.010;2023-07-31T09:43:47;6.93;;;6.53;;
16804;SDS011;8520;50.102;20.010;2023-07-31T09:46:20;7.20;;;6.80;;
16804;SDS011;8520;50.102;20.010;2023-07-31T09:48:48;7.80;;;7.10;;
16804;SDS011;8520;50.102;20.010;2023-07-31T09:51:16;6.90;;;6.30;;
16804;SDS011;8520;50.102;20.010;2023-07-31T09:53:49;6.50;;;6.00;;
16804;SDS011;8520;50.102;20.010;2023-07-31T09:56:17;7.03;;;6.57;;
16804;SDS011;8520;50.102;20.010;2023-07-31T09:58:47;7.60;;;7.00;;
16804;SDS011;8520;50.102;20.010;2023-07-31T10:01:15;6.40;;;5.90;;
16804;SDS011;8520;50.102;20.010;2023-07-31T10:03:43;6.70;;;6.03;;
16804;SDS011;8520;50.102;20.010;2023-07-31T10:06:13;6.97;;;6.57;;
16804;SDS011;8520;50.102;20.010;2023-07-31T10:08:42;6.35;;;5.88;;
16804;SDS011;8520;50.102;20.010;2023-07-31T10:11:11;6.15;;;5.57;;
16804;SDS011;8520;50.102;20.010;2023-07-31T10:13:40;5.78;;;5.28;;
16804;SDS011;8520;50.102;20.010;2023-07-31T10:16:10;5.40;;;5.00;;
16804;SDS011;8520;50.102;20.010;2023-07-31T10:18:38;5.05;;;4.65;;
16804;SDS011;8520;50.102;20.010;2023-07-31T10:21:07;5.38;;;4.90;;
16804;SDS011;8520;50.102;20.010;2023-07-31T10:23:35;4.25;;;3.97;;
16804;SDS011;8520;50.102;20.010;2023-07-31T10:26:03;3.90;;;3.70;;
16804;SDS011;8520;50.102;20.010;2023-07-31T10:28:32;4.60;;;4.30;;
16804;SDS011;8520;50.102;20.010;2023-07-31T10:31:01;4.55;;;4.20;;
16804;SDS011;8520;50.102;20.010;2023-07-31T10:33:31;4.57;;;4.35;;
16804;SDS011;8520;50.102;20.010;2023-07-31T10:36:14;4.97;;;4.57;;
16804;SDS011;8520;50.102;20.010;2023-07-31T10:38:43;4.28;;;3.92;;
16804;SDS011;8520;50.102;20.010;2023-07-31T10:41:11;4.70;;;4.30;;
16804;SDS011;8520;50.102;20.010;2023-07-31T10:43:39;4.50;;;4.18;;
16804;SDS011;8520;50.102;20.010;2023-07-31T10:46:07;4.50;;;4.10;;
16804;SDS011;8520;50.102;20.010;2023-07-31T10:48:38;4.65;;;4.20;;
16804;SDS011;8520;50.102;20.010;2023-07-31T10:51:08;3.92;;;3.63;;
16804;SDS011;8520;50.102;20.010;2023-07-31T10:53:38;5.32;;;4.90;;
16804;SDS011;8520;50.102;20.010;2023-07-31T10:56:07;4.68;;;4.28;;
16804;SDS011;8520;50.102;20.010;2023-07-31T10:58:36;3.80;;;3.60;;
16804;SDS011;8520;50.102;20.010;2023-07-31T11:01:04;4.85;;;4.55;;
16804;SDS011;8520;50.102;20.010;2023-07-31T11:03:43;4.72;;;4.38;;
16804;SDS011;8520;50.102;20.010;2023-07-31T11:06:12;4.78;;;4.38;;
16804;SDS011;8520;50.102;20.010;2023-07-31T11:08:44;4.70;;;4.22;;
16804;SDS011;8520;50.102;20.010;2023-07-31T11:11:12;4.93;;;4.57;;
16804;SDS011;8520;50.102;20.010;2023-07-31T11:13:42;5.68;;;5.25;;
16804;SDS011;8520;50.102;20.010;2023-07-31T11:16:09;3.70;;;3.50;;
16804;SDS011;8520;50.102;20.010;2023-07-31T11:18:38;4.10;;;3.80;;
16804;SDS011;8520;50.102;20.010;2023-07-31T11:21:08;4.15;;;3.85;;
16804;SDS011;8520;50.102;20.010;2023-07-31T11:23:36;4.38;;;4.00;;
16804;SDS011;8520;50.102;20.010;2023-07-31T11:26:04;4.82;;;4.32;;
16804;SDS011;8520;50.102;20.010;2023-07-31T11:28:32;3.80;;;3.47;;
16804;SDS011;8520;50.102;20.010;2023-07-31T11:31:01;4.25;;;3.83;;
16804;SDS011;8520;50.102;20.010;2023-07-31T11:33:30;4.00;;;3.72;;
16804;SDS011;8520;50.102;20.010;2023-07-31T11:35:58;3.55;;;3.35;;
16804;SDS011;8520;50.102;20.010;2023-07-31T11:38:27;3.50;;;3.20;;
16804;SDS011;8520;50.102;20.010;2023-07-31T11:40:56;4.15;;;3.78;;
16804;SDS011;8520;50.102;20.010;2023-07-31T11:43:24;4.20;;;3.90;;
16804;SDS011;8520;50.102;20.010;2023-07-31T11:45:54;4.05;;;3.85;;
16804;SDS011;8520;50.102;20.010;2023-07-31T11:48:23;3.85;;;3.55;;
16804;SDS011;8520;50.102;20.010;2023-07-31T11:50:53;3.63;;;3.42;;
16804;SDS011;8520;50.102;20.010;2023-07-31T11:53:22;3.75;;;3.55;;
16804;SDS011;8520;50.102;20.010;2023-07-31T11:55:54;4.00;;;3.70;;
16804;SDS011;8520;50.102;20.010;2023-07-31T11:58:22;3.45;;;3.25;;
16804;SDS011;8520;50.102;20.010;2023-07-31T12:00:51;3.63;;;3.33;;
16804;SDS011;8520;50.102;20.010;2023-07-31T12:03:19;4.03;;;3.65;;
16804;SDS011;8520;50.102;20.010;2023-07-31T12:05:47;3.60;;;3.30;;
16804;SDS011;8520;50.102;20.010;2023-07-31T12:08:15;6.88;;;4.15;;
16804;SDS011;8520;50.102;20.010;2023-07-31T12:10:43;4.07;;;3.88;;
16804;SDS011;8520;50.102;20.010;2023-07-31T12:13:19;5.00;;;4.25;;
16804;SDS011;8520;50.102;20.010;2023-07-31T12:15:47;3.53;;;3.22;;
16804;SDS011;8520;50.102;20.010;2023-07-31T12:18:18;3.67;;;3.30;;
16804;SDS011;8520;50.102;20.010;2023-07-31T12:20:47;4.65;;;4.35;;
16804;SDS011;8520;50.102;20.010;2023-07-31T12:23:16;4.63;;;3.70;;
16804;SDS011;8520;50.102;20.010;2023-07-31T12:25:44;3.83;;;3.63;;
16804;SDS011;8520;50.102;20.010;2023-07-31T12:28:14;3.40;;;3.20;;
16804;SDS011;8520;50.102;20.010;2023-07-31T12:30:42;5.43;;;4.57;;
16804;SDS011;8520;50.102;20.010;2023-07-31T12:33:13;4.70;;;4.30;;
16804;SDS011;8520;50.102;20.010;2023-07-31T12:35:43;3.80;;;3.50;;
16804;SDS011;8520;50.102;20.010;2023-07-31T12:38:11;4.40;;;4.10;;
16804;SDS011;8520;50.102;20.010;2023-07-31T12:40:39;4.63;;;3.50;;
16804;SDS011;8520;50.102;20.010;2023-07-31T12:43:08;4.85;;;4.45;;
16804;SDS011;8520;50.102;20.010;2023-07-31T12:45:37;4.05;;;3.78;;
16804;SDS011;8520;50.102;20.010;2023-07-31T12:48:05;5.45;;;3.65;;
16804;SDS011;8520;50.102;20.010;2023-07-31T12:50:33;3.78;;;3.58;;
16804;SDS011;8520;50.102;20.010;2023-07-31T12:53:04;5.63;;;3.25;;
16804;SDS011;8520;50.102;20.010;2023-07-31T12:55:32;4.00;;;3.80;;
16804;SDS011;8520;50.102;20.010;2023-07-31T12:58:01;4.88;;;3.65;;
16804;SDS011;8520;50.102;20.010;2023-07-31T13:00:29;4.15;;;3.85;;
16804;SDS011;8520;50.102;20.010;2023-07-31T13:02:58;4.85;;;4.55;;
16804;SDS011;8520;50.102;20.010;2023-07-31T13:05:27;4.10;;;3.80;;
16804;SDS011;8520;50.102;20.010;2023-07-31T13:07:55;4.15;;;3.92;;
16804;SDS011;8520;50.102;20.010;2023-07-31T13:10:23;4.38;;;3.95;;
16804;SDS011;8520;50.102;20.010;2023-07-31T13:12:53;4.25;;;3.95;;
16804;SDS011;8520;50.102;20.010;2023-07-31T13:15:21;3.65;;;3.45;;
16804;SDS011;8520;50.102;20.010;2023-07-31T13:17:49;3.97;;;3.67;;
16804;SDS011;8520;50.102;20.010;2023-07-31T13:20:19;4.55;;;4.13;;
16804;SDS011;8520;50.102;20.010;2023-07-31T13:22:47;3.65;;;3.35;;
16804;SDS011;8520;50.102;20.010;2023-07-31T13:25:15;4.53;;;4.20;;
16804;SDS011;8520;50.102;20.010;2023-07-31T13:27:43;4.78;;;4.07;;
16804;SDS011;8520;50.102;20.010;2023-07-31T13:30:10;3.70;;;3.50;;
16804;SDS011;8520;50.102;20.010;2023-07-31T13:32:38;4.43;;;4.13;;
16804;SDS011;8520;50.102;20.010;2023-07-31T13:35:07;4.10;;;3.90;;
16804;SDS011;8520;50.102;20.010;2023-07-31T13:37:36;3.83;;;3.47;;
16804;SDS011;8520;50.102;20.010;2023-07-31T13:40:04;4.68;;;3.85;;
16804;SDS011;8520;50.102;20.010;2023-07-31T13:42:32;3.92;;;3.63;;
16804;SDS011;8520;50.102;20.010;2023-07-31T13:45:00;4.25;;;4.00;;
16804;SDS011;8520;50.102;20.010;2023-07-31T13:47:32;4.15;;;3.85;;
16804;SDS011;8520;50.102;20.010;2023-07-31T13:50:01;4.47;;;4.15;;
16804;SDS011;8520;50.102;20.010;2023-07-31T13:52:29;3.97;;;3.67;;
16804;SDS011;8520;50.102;20.010;2023-07-31T13:54:58;7.07;;;3.92;;
16804;SDS011;8520;50.102;20.010;2023-07-31T13:57:26;4.00;;;3.70;;
16804;SDS011;8520;50.102;20.010;2023-07-31T13:59:55;3.75;;;3.55;;
16804;SDS011;8520;50.102;20.010;2023-07-31T14:02:23;4.13;;;3.78;;
16804;SDS011;8520;50.102;20.010;2023-07-31T14:04:51;4.50;;;4.20;;
16804;SDS011;8520;50.102;20.010;2023-07-31T14:07:18;4.55;;;4.25;;
16804;SDS011;8520;50.102;20.010;2023-07-31T14:09:46;4.55;;;4.00;;
16804;SDS011;8520;50.102;20.010;2023-07-31T14:12:16;3.80;;;3.60;;
16804;SDS011;8520;50.102;20.010;2023-07-31T14:15:04;4.63;;;4.32;;
16804;SDS011;8520;50.102;20.010;2023-07-31T14:17:32;4.53;;;4.13;;
16804;SDS011;8520;50.102;20.010;2023-07-31T14:20:00;4.10;;;3.90;;
16804;SDS011;8520;50.102;20.010;2023-07-31T14:22:29;3.97;;;3.78;;
16804;SDS011;8520;50.102;20.010;2023-07-31T14:25:00;3.90;;;3.50;;
16804;SDS011;8520;50.102;20.010;2023-07-31T14:27:29;4.03;;;3.80;;
16804;SDS011;8520;50.102;20.010;2023-07-31T14:29:57;3.70;;;3.40;;
16804;SDS011;8520;50.102;20.010;2023-07-31T14:32:25;4.30;;;4.00;;
16804;SDS011;8520;50.102;20.010;2023-07-31T14:34:53;3.90;;;3.70;;
16804;SDS011;8520;50.102;20.010;2023-07-31T14:37:21;4.13;;;3.83;;
16804;SDS011;8520;50.102;20.010;2023-07-31T14:39:49;4.15;;;3.58;;
16804;SDS011;8520;50.102;20.010;2023-07-31T14:42:17;3.80;;;2.97;;